Time;durP1;ratioP1;P1;durP2;ratioP2;P2;SDS_P1;SDS_P2;PMS_P1;PMS_P2;Temp;Humidity;BMP_temperature;BMP_pressure;BME280_temperature;BME280_humidity;BME280_pressure;Samples;Min_cycle;Max_cycle;Signal;HPM_P1;HPM_P2
2022/05/17 00:00:17;;;;;;;;;;;;;;;24.49;15.32;100588.31;5073632;28;19917;-75
2022/05/17 00:02:43;;;;;;;;;;;;;;;24.50;15.37;100587.22;5073771;28;20016;-72
2022/05/17 00:05:08;;;;;;;;;;;;;;;24.48;15.29;100594.88;5073533;28;19950;-75
2022/05/17 00:07:34;;;;;;;;;;;;;;;24.49;15.23;100598.41;5073638;28;19969;-74
2022/05/17 00:09:59;;;;;;;;;;;;;;;24.48;15.29;100597.59;5073237;28;19916;-74
2022/05/17 00:12:24;;;;;;;;;;;;;;;24.48;15.33;100600.34;5073869;28;19979;-73
2022/05/17 00:14:49;;;;;;;;;;;;;;;24.49;15.34;100598.41;5073752;28;19923;-75
2022/05/17 00:17:15;;;;;;;;;;;;;;;24.49;15.29;100593.78;5074640;28;19917;-74
2022/05/17 00:19:40;;;;;;;;;;;;;;;24.47;15.14;100595.13;5085160;28;19969;-75
2022/05/17 00:22:07;;;;;;;;;;;;;;;24.48;15.17;100600.34;5097965;28;20370;-75
2022/05/17 00:24:33;;;;;;;;;;;;;;;24.46;15.18;100602.53;5098089;28;19985;-73
2022/05/17 00:26:58;;;;;;;;;;;;;;;24.46;15.32;100608.00;5094114;28;20401;-74
2022/05/17 00:29:24;;;;;;;;;;;;;;;24.45;15.21;100598.16;5118208;28;19916;-74
2022/05/17 00:31:50;;;;;;;;;;;;;;;24.46;15.40;100610.72;5118100;28;20342;-75
2022/05/17 00:34:15;;;;;;;;;;;;;;;24.47;15.37;100600.59;5118455;28;19915;-77
2022/05/17 00:36:40;;;;;;;;;;;;;;;24.46;15.39;100609.91;5118871;28;20265;-74
2022/05/17 00:39:06;;;;;;;;;;;;;;;24.46;15.31;100609.91;5118006;28;20346;-80
2022/05/17 00:41:31;;;;;;;;;;;;;;;24.45;15.47;100605.53;5118138;28;19945;-74
2022/05/17 00:46:48;;;;;;;;;;;;;;;24.44;15.40;100612.91;5118230;28;19976;-75
2022/05/17 00:49:18;;;;;;;;;;;;;;;24.43;15.45;100600.34;5099902;28;19915;-74
2022/05/17 00:51:44;;;;;;;;;;;;;;;24.43;15.27;100605.81;5099383;28;20370;-74
2022/05/17 00:54:10;;;;;;;;;;;;;;;24.43;15.21;100600.34;5117657;28;19924;-75
2022/05/17 00:56:39;;;;;;;;;;;;;;;24.42;15.35;100609.63;5117632;28;20380;-73
2022/05/17 00:59:04;;;;;;;;;;;;;;;24.43;15.44;100600.34;5117406;28;19916;-74
2022/05/17 01:01:31;;;;;;;;;;;;;;;24.42;15.37;100603.34;5117523;28;19920;-74
2022/05/17 01:03:57;;;;;;;;;;;;;;;24.43;15.24;100607.72;5117303;28;19927;-74
2022/05/17 01:06:23;;;;;;;;;;;;;;;24.43;15.51;100608.53;5099674;28;19946;-75
2022/05/17 01:08:48;;;;;;;;;;;;;;;24.42;15.47;100615.06;5099123;28;20394;-73
2022/05/17 01:11:13;;;;;;;;;;;;;;;24.37;15.62;100605.00;5117468;28;19994;-75
2022/05/17 01:16:23;;;;;;;;;;;;;;;24.42;15.60;100615.06;5117627;28;20013;-73
2022/05/17 01:18:48;;;;;;;;;;;;;;;24.41;15.58;100616.19;5117082;28;19927;-73
2022/05/17 01:21:14;;;;;;;;;;;;;;;24.42;15.40;100617.81;5097495;28;19992;-77
2022/05/17 01:23:39;;;;;;;;;;;;;;;24.40;15.63;100617.28;5096859;28;19916;-74
2022/05/17 01:26:05;;;;;;;;;;;;;;;24.40;15.55;100611.81;5096633;28;19920;-76
2022/05/17 01:28:31;;;;;;;;;;;;;;;24.41;15.44;100612.66;5096184;28;20305;-73
2022/05/17 01:31:03;;;;;;;;;;;;;;;24.41;15.59;100612.66;5078312;28;20007;-74
2022/05/17 01:33:29;;;;;;;;;;;;;;;24.39;15.47;100615.66;5096760;28;20003;-74
2022/05/17 01:35:54;;;;;;;;;;;;;;;24.39;15.64;100621.13;5096394;28;20366;-74
2022/05/17 01:38:19;;;;;;;;;;;;;;;24.38;15.46;100614.81;5096820;28;19916;-76
2022/05/17 01:40:44;;;;;;;;;;;;;;;24.38;15.60;100614.00;5096582;28;19917;-75
2022/05/17 01:43:10;;;;;;;;;;;;;;;24.38;15.61;100625.72;5096509;28;20374;-75
2022/05/17 01:45:35;;;;;;;;;;;;;;;24.38;15.53;100616.72;5096473;28;19920;-74
2022/05/17 01:48:00;;;;;;;;;;;;;;;24.38;15.90;100619.47;5096130;28;20064;-74
2022/05/17 01:50:25;;;;;;;;;;;;;;;24.37;15.61;100620.56;5096140;28;19927;-75
2022/05/17 01:52:51;;;;;;;;;;;;;;;24.37;15.60;100617.84;5078116;28;19924;-73
2022/05/17 01:55:16;;;;;;;;;;;;;;;24.37;15.73;100624.13;5095955;28;19924;-74
2022/05/17 01:57:41;;;;;;;;;;;;;;;24.37;15.68;100623.31;5096222;28;19916;-74
2022/05/17 02:00:07;;;;;;;;;;;;;;;24.37;15.80;100626.03;5096409;28;19917;-74
2022/05/17 02:02:33;;;;;;;;;;;;;;;24.37;15.71;100618.66;5095867;28;19916;-74
2022/05/17 02:04:58;;;;;;;;;;;;;;;24.36;15.80;100621.66;5096174;28;20384;-74
2022/05/17 02:07:23;;;;;;;;;;;;;;;24.35;15.60;100615.38;5096100;28;19916;-74
2022/05/17 02:09:48;;;;;;;;;;;;;;;24.37;15.68;100626.84;5096077;28;20010;-74
2022/05/17 02:12:14;;;;;;;;;;;;;;;24.36;15.78;100616.19;5095681;28;19917;-74
2022/05/17 02:14:39;;;;;;;;;;;;;;;24.36;15.89;100618.94;5095999;28;19920;-74
2022/05/17 02:17:04;;;;;;;;;;;;;;;24.35;15.81;100622.72;5095545;28;19920;-75
2022/05/17 02:19:30;;;;;;;;;;;;;;;24.34;15.91;100626.56;5099984;28;19965;-75
2022/05/17 02:21:55;;;;;;;;;;;;;;;24.35;15.82;100625.47;5098117;28;19958;-76
2022/05/17 02:24:20;;;;;;;;;;;;;;;24.35;15.72;100630.94;5115837;28;19950;-74
2022/05/17 02:26:46;;;;;;;;;;;;;;;24.35;15.81;100630.94;5115898;28;19931;-74
2022/05/17 02:29:11;;;;;;;;;;;;;;;24.35;15.74;100636.41;5116240;28;19922;-74
2022/05/17 02:31:36;;;;;;;;;;;;;;;24.35;15.99;100633.66;5116210;28;19915;-74
2022/05/17 02:34:01;;;;;;;;;;;;;;;24.35;15.75;100633.66;5115865;28;19916;-75
2022/05/17 02:36:26;;;;;;;;;;;;;;;24.33;15.72;100638.59;5116172;28;19998;-74
2022/05/17 02:38:52;;;;;;;;;;;;;;;24.32;15.96;100640.50;5116234;28;20260;-76
2022/05/17 02:41:18;;;;;;;;;;;;;;;24.32;15.81;100637.78;5114828;28;19922;-73
2022/05/17 02:43:44;;;;;;;;;;;;;;;24.33;15.76;100644.84;5116575;28;19915;-75
2022/05/17 02:46:09;;;;;;;;;;;;;;;24.33;15.93;100633.13;5115566;28;20401;-73
2022/05/17 02:48:35;;;;;;;;;;;;;;;24.33;16.04;100633.94;5115670;28;20007;-74
2022/05/17 02:51:26;;;;;;;;;;;;;;;24.33;16.00;100636.66;5115741;28;19934;-74
2022/05/17 02:53:51;;;;;;;;;;;;;;;24.32;16.18;100637.78;5112235;28;19930;-74
2022/05/17 02:56:17;;;;;;;;;;;;;;;24.32;16.06;100636.97;5115428;28;20010;-74
2022/05/17 02:58:42;;;;;;;;;;;;;;;24.32;15.96;100637.78;5115483;28;19931;-76
2022/05/17 03:01:07;;;;;;;;;;;;;;;24.31;16.11;100638.84;5115533;28;19972;-72
2022/05/17 03:03:35;;;;;;;;;;;;;;;24.31;16.11;100638.84;5115679;28;20365;-76
2022/05/17 03:06:00;;;;;;;;;;;;;;;24.32;16.28;100647.88;5115643;28;20006;-74
2022/05/17 03:08:26;;;;;;;;;;;;;;;24.32;16.19;100647.88;5115572;28;20430;-76
2022/05/17 03:10:51;;;;;;;;;;;;;;;24.30;16.15;100650.06;5115111;28;19920;-73
2022/05/17 03:13:16;;;;;;;;;;;;;;;24.31;16.20;100652.50;5115083;28;19915;-75
2022/05/17 03:15:41;;;;;;;;;;;;;;;24.31;16.13;100652.50;5115288;28;19965;-73
2022/05/17 03:18:07;;;;;;;;;;;;;;;24.30;16.28;100652.78;5097281;28;20366;-75
2022/05/17 03:20:32;;;;;;;;;;;;;;;24.32;16.31;100653.34;5102664;28;19969;-74
2022/05/17 03:22:57;;;;;;;;;;;;;;;24.34;16.24;100653.88;5094351;28;19917;-74
2022/05/17 03:25:23;;;;;;;;;;;;;;;24.34;16.17;100656.63;5094746;28;19916;-76
2022/05/17 03:27:48;;;;;;;;;;;;;;;24.35;15.92;100658.25;5094661;28;20384;-75
2022/05/17 03:30:14;;;;;;;;;;;;;;;24.37;16.06;100669.75;5094827;28;19981;-76
2022/05/17 03:32:39;;;;;;;;;;;;;;;24.40;15.96;100668.34;5094611;28;19920;-74
2022/05/17 03:35:06;;;;;;;;;;;;;;;24.41;16.04;100668.09;5094640;28;19916;-75
2022/05/17 03:37:31;;;;;;;;;;;;;;;24.44;15.99;100664.81;5094586;28;19916;-74
2022/05/17 03:39:56;;;;;;;;;;;;;;;24.45;15.87;100663.69;5094184;28;19923;-74
2022/05/17 03:42:21;;;;;;;;;;;;;;;24.47;15.90;100660.69;5094405;28;19977;-73
2022/05/17 03:44:47;;;;;;;;;;;;;;;24.48;15.98;100657.69;5094306;28;20362;-75
2022/05/17 03:47:12;;;;;;;;;;;;;;;24.51;16.22;100665.34;5094435;28;19916;-74
2022/05/17 03:49:38;;;;;;;;;;;;;;;24.56;16.00;100672.78;5094286;28;19916;-75
2022/05/17 03:52:04;;;;;;;;;;;;;;;24.58;15.94;100672.47;5094245;28;19920;-76
2022/05/17 03:54:29;;;;;;;;;;;;;;;24.59;16.13;100669.47;5094267;28;19927;-74
2022/05/17 03:56:54;;;;;;;;;;;;;;;24.63;16.13;100676.03;5094066;28;20319;-76
2022/05/17 03:59:19;;;;;;;;;;;;;;;24.67;15.92;100676.31;5093817;28;19920;-74
2022/05/17 04:01:45;;;;;;;;;;;;;;;24.65;16.05;100676.56;5093968;28;19923;-75
2022/05/17 04:04:11;;;;;;;;;;;;;;;24.67;16.18;100671.66;5093727;28;19920;-75
2022/05/17 04:06:36;;;;;;;;;;;;;;;24.69;16.14;100674.09;5076157;28;20030;-74
2022/05/17 04:09:01;;;;;;;;;;;;;;;24.70;16.06;100668.38;5093955;28;20441;-76
2022/05/17 04:11:26;;;;;;;;;;;;;;;24.74;16.06;100679.56;5093917;28;19916;-75
2022/05/17 04:13:51;;;;;;;;;;;;;;;24.77;16.07;100680.91;5093591;28;19924;-74
2022/05/17 04:16:17;;;;;;;;;;;;;;;24.78;15.97;100688.03;5093611;28;19915;-74
2022/05/17 04:18:43;;;;;;;;;;;;;;;24.79;16.00;100690.50;5093892;28;19916;-74
2022/05/17 04:21:09;;;;;;;;;;;;;;;24.82;16.11;100689.09;5110593;28;19930;-75
2022/05/17 04:23:34;;;;;;;;;;;;;;;24.85;15.72;100689.41;5113828;28;19915;-73
2022/05/17 04:25:59;;;;;;;;;;;;;;;24.87;15.76;100702.78;5113727;28;19920;-76
2022/05/17 04:28:25;;;;;;;;;;;;;;;24.87;16.02;100698.13;5113696;28;19916;-73
2022/05/17 04:30:50;;;;;;;;;;;;;;;24.87;16.10;100708.25;5113499;28;19916;-75
2022/05/17 04:33:15;;;;;;;;;;;;;;;24.91;16.03;100710.16;5113530;28;19919;-76
2022/05/17 04:35:41;;;;;;;;;;;;;;;24.93;15.89;100705.22;5113363;28;20316;-75
2022/05/17 04:38:07;;;;;;;;;;;;;;;24.96;16.01;100712.06;5113737;28;19920;-75
2022/05/17 04:40:32;;;;;;;;;;;;;;;24.98;16.02;100717.25;5113791;28;20314;-74
2022/05/17 04:42:57;;;;;;;;;;;;;;;25.00;16.02;100715.06;5113592;28;20281;-74
2022/05/17 04:45:23;;;;;;;;;;;;;;;24.98;16.01;100717.25;5113349;28;20263;-75
2022/05/17 04:47:48;;;;;;;;;;;;;;;25.00;15.85;100712.34;5113659;28;19916;-74
2022/05/17 04:50:13;;;;;;;;;;;;;;;25.03;16.10;100717.25;5113999;28;20365;-75
2022/05/17 04:52:39;;;;;;;;;;;;;;;25.05;15.86;100721.34;5113898;28;20015;-76
2022/05/17 04:55:05;;;;;;;;;;;;;;;25.04;16.03;100722.44;5113475;28;20454;-74
2022/05/17 04:57:30;;;;;;;;;;;;;;;25.08;16.09;100728.19;5113061;28;19922;-74
2022/05/17 04:59:57;;;;;;;;;;;;;;;25.08;16.13;100725.44;5113668;28;20006;-74
2022/05/17 05:02:22;;;;;;;;;;;;;;;25.10;16.00;100724.06;5113813;28;19973;-74
2022/05/17 05:04:47;;;;;;;;;;;;;;;25.10;16.10;100724.06;5116743;28;19919;-74
2022/05/17 05:07:13;;;;;;;;;;;;;;;25.11;15.92;100727.59;5117336;28;19922;-74
2022/05/17 05:09:38;;;;;;;;;;;;;;;25.14;15.97;100732.53;5117080;28;20337;-74
2022/05/17 05:12:03;;;;;;;;;;;;;;;25.17;16.11;100728.44;5117769;28;20369;-76
2022/05/17 05:14:29;;;;;;;;;;;;;;;25.16;16.11;100724.03;5116858;28;19915;-74
2022/05/17 05:16:54;;;;;;;;;;;;;;;25.18;16.14;100730.91;5117275;28;19916;-76
2022/05/17 05:19:19;;;;;;;;;;;;;;;25.21;16.15;100730.31;5116784;28;19938;-77
2022/05/17 05:21:44;;;;;;;;;;;;;;;25.23;16.46;100736.34;5096539;28;19916;-74
2022/05/17 05:24:11;;;;;;;;;;;;;;;25.23;16.30;100741.81;5096249;28;19923;-75
2022/05/17 05:26:36;;;;;;;;;;;;;;;25.28;16.12;100741.00;5084875;28;19932;-74
2022/05/17 05:29:01;;;;;;;;;;;;;;;25.26;16.29;100744.00;5076664;28;20062;-75
2022/05/17 05:31:27;;;;;;;;;;;;;;;25.30;16.24;100745.13;5076343;28;19916;-76
2022/05/17 05:33:52;;;;;;;;;;;;;;;25.35;16.15;100738.78;5076368;28;19917;-75
2022/05/17 05:36:18;;;;;;;;;;;;;;;25.36;16.18;100748.66;5076181;28;19924;-76
2022/05/17 05:38:43;;;;;;;;;;;;;;;25.38;16.10;100740.97;5077265;28;19916;-76
2022/05/17 05:41:12;;;;;;;;;;;;;;;25.41;16.17;100743.16;5076515;28;20359;-74
2022/05/17 05:43:37;;;;;;;;;;;;;;;25.40;16.26;100746.97;5075655;28;19917;-76
2022/05/17 05:46:02;;;;;;;;;;;;;;;25.42;16.46;100749.44;5076060;28;20026;-75
2022/05/17 05:48:27;;;;;;;;;;;;;;;25.42;16.38;100752.19;5076245;28;20325;-74
2022/05/17 05:50:53;;;;;;;;;;;;;;;25.44;16.36;100749.97;5076003;28;19979;-75
2022/05/17 05:53:18;;;;;;;;;;;;;;;25.45;16.19;100755.19;5076105;28;20405;-76
2022/05/17 05:55:43;;;;;;;;;;;;;;;25.42;16.29;100757.66;5075834;28;20407;-74
2022/05/17 05:58:09;;;;;;;;;;;;;;;25.44;16.48;100756.28;5075614;28;19924;-74
2022/05/17 06:00:35;;;;;;;;;;;;;;;25.47;16.37;100771.31;5075528;28;19916;-76
2022/05/17 06:03:00;;;;;;;;;;;;;;;25.45;16.49;100774.31;5075775;28;20086;-76
2022/05/17 06:05:26;;;;;;;;;;;;;;;25.48;16.93;100767.50;5076030;28;19920;-75
2022/05/17 06:07:51;;;;;;;;;;;;;;;25.51;16.61;100766.94;5075686;28;19920;-75
2022/05/17 06:10:17;;;;;;;;;;;;;;;25.54;16.62;100776.50;5075563;28;20002;-74
2022/05/17 06:12:42;;;;;;;;;;;;;;;25.53;16.81;100781.16;5075676;28;19916;-74
2022/05/17 06:15:08;;;;;;;;;;;;;;;25.58;16.77;100778.41;5074131;28;20197;-75
2022/05/17 06:17:33;;;;;;;;;;;;;;;25.65;16.63;100781.66;5075714;28;19959;-75
2022/05/17 06:19:58;;;;;;;;;;;;;;;25.62;17.00;100774.00;5080645;28;20320;-74
2022/05/17 06:22:24;;;;;;;;;;;;;;;25.71;16.75;100776.16;5098906;28;20335;-74
2022/05/17 06:24:49;;;;;;;;;;;;;;;25.72;17.01;100777.81;5098767;28;20006;-76
2022/05/17 06:27:14;;;;;;;;;;;;;;;25.70;16.78;100780.84;5116491;28;20341;-75
2022/05/17 06:29:40;;;;;;;;;;;;;;;25.74;16.82;100786.56;5116293;28;19923;-75
2022/05/17 06:32:09;;;;;;;;;;;;;;;25.73;16.96;100791.19;5117873;28;20369;-77
2022/05/17 06:34:34;;;;;;;;;;;;;;;25.78;16.69;100790.38;5120883;28;19968;-76
2022/05/17 06:37:01;;;;;;;;;;;;;;;25.76;16.96;100787.09;5102897;28;19943;-77
2022/05/17 06:39:26;;;;;;;;;;;;;;;25.80;16.82;100796.38;5125143;28;20058;-77
2022/05/17 06:41:53;;;;;;;;;;;;;;;25.81;16.66;100798.84;5122675;28;20354;-79
2022/05/17 06:44:18;;;;;;;;;;;;;;;25.81;16.70;100804.31;5106897;28;19938;-76
2022/05/17 06:46:44;;;;;;;;;;;;;;;25.76;16.87;100811.75;5129126;28;19916;-77
2022/05/17 06:49:09;;;;;;;;;;;;;;;25.79;16.67;100811.19;5126066;28;19924;-78
2022/05/17 06:51:35;;;;;;;;;;;;;;;25.84;16.91;100808.44;5126319;28;19955;-78
2022/05/17 06:54:00;;;;;;;;;;;;;;;25.88;16.73;100811.41;5106785;28;19915;-76
2022/05/17 06:56:26;;;;;;;;;;;;;;;25.83;16.75;100809.50;5125004;28;19954;-76
2022/05/17 06:58:51;;;;;;;;;;;;;;;25.80;16.93;100823.75;5127531;28;19955;-79
2022/05/17 07:01:16;;;;;;;;;;;;;;;25.79;16.90;100819.41;5123195;28;20323;-77
2022/05/17 07:03:42;;;;;;;;;;;;;;;25.82;17.01;100824.31;5125347;28;19927;-77
2022/05/17 07:06:07;;;;;;;;;;;;;;;25.85;17.00;100821.00;5123741;28;19975;-78
2022/05/17 07:08:33;;;;;;;;;;;;;;;25.85;16.86;100816.38;5120559;28;19982;-79
2022/05/17 07:13:42;;;;;;;;;;;;;;;25.82;17.18;100822.41;5108560;28;19969;-77
2022/05/17 07:16:07;;;;;;;;;;;;;;;25.84;17.15;100822.13;5119687;28;19915;-76
2022/05/17 07:18:33;;;;;;;;;;;;;;;25.86;17.24;100828.13;5102751;28;19927;-79
2022/05/17 07:21:01;;;;;;;;;;;;;;;25.90;17.24;100825.66;5123045;28;19943;-77
2022/05/17 07:23:26;;;;;;;;;;;;;;;25.89;16.98;100832.22;5122567;28;19916;-77
2022/05/17 07:25:52;;;;;;;;;;;;;;;25.92;17.04;100827.00;5103390;28;19987;-77
2022/05/17 07:28:18;;;;;;;;;;;;;;;25.95;17.11;100831.94;5120223;28;19916;-79
2022/05/17 07:30:44;;;;;;;;;;;;;;;25.92;17.17;100832.47;5103986;28;19916;-76
2022/05/17 07:33:09;;;;;;;;;;;;;;;25.93;17.25;100830.56;5124024;28;19923;-77
2022/05/17 07:35:34;;;;;;;;;;;;;;;26.00;17.03;100840.13;5123891;28;19923;-78
2022/05/17 07:38:10;;;;;;;;;;;;;;;26.01;17.04;100844.53;5108080;28;19916;-79
2022/05/17 07:40:36;;;;;;;;;;;;;;;25.97;16.86;100840.69;5088505;28;20103;-81
2022/05/17 07:43:01;;;;;;;;;;;;;;;26.04;17.24;100845.88;5107412;28;19916;-75
2022/05/17 07:45:26;;;;;;;;;;;;;;;26.09;16.92;100842.31;5104903;28;19999;-78
2022/05/17 07:48:01;;;;;;;;;;;;;;;26.13;17.09;100846.09;5104293;28;20319;-77
2022/05/17 07:50:44;;;;;;;;;;;;;;;26.07;16.97;100850.78;5095731;28;19991;-78
2022/05/17 07:53:10;;;;;;;;;;;;;;;26.09;17.04;100850.50;5079603;28;19924;-76
2022/05/17 07:55:36;;;;;;;;;;;;;;;26.14;17.14;100847.75;5102674;28;20068;-81
2022/05/17 07:58:02;;;;;;;;;;;;;;;26.13;16.94;100854.31;5104582;28;19916;-77
2022/05/17 08:00:27;;;;;;;;;;;;;;;26.18;17.14;100855.13;5104911;28;19987;-76
2022/05/17 08:02:55;;;;;;;;;;;;;;;26.21;16.90;100868.25;5107468;28;20220;-78
2022/05/17 08:05:21;;;;;;;;;;;;;;;26.21;17.06;100861.97;5101590;28;19951;-78
2022/05/17 08:07:46;;;;;;;;;;;;;;;26.16;16.94;100859.25;5110192;28;19924;-79
2022/05/17 08:10:11;;;;;;;;;;;;;;;26.21;17.05;100871.00;5130142;28;19940;-76
2022/05/17 08:12:37;;;;;;;;;;;;;;;26.23;16.93;100881.66;5115764;28;19920;-77
2022/05/17 08:15:02;;;;;;;;;;;;;;;26.28;16.91;100887.13;5133400;28;19962;-78
2022/05/17 08:17:27;;;;;;;;;;;;;;;26.29;16.92;100888.78;5125874;28;20010;-77
2022/05/17 08:19:53;;;;;;;;;;;;;;;26.30;17.17;100893.16;5131672;28;20265;-77
2022/05/17 08:22:18;;;;;;;;;;;;;;;26.31;17.12;100888.50;5113301;28;19904;-77
2022/05/17 08:27:36;;;;;;;;;;;;;;;26.27;17.12;100903.84;5114392;28;19931;-78
2022/05/17 08:30:12;;;;;;;;;;;;;;;26.27;16.66;100906.59;5096177;28;20003;-78
2022/05/17 08:35:34;;;;;;;;;;;;;;;26.30;16.60;100897.81;5099927;28;19923;-78
2022/05/17 08:37:59;;;;;;;;;;;;;;;26.29;16.77;100902.47;5115026;28;19927;-77
2022/05/17 08:40:25;;;;;;;;;;;;;;;26.27;16.65;100909.31;5115990;28;20350;-78
2022/05/17 08:43:08;;;;;;;;;;;;;;;26.28;16.61;100906.31;5118754;28;19915;-78
2022/05/17 08:45:36;;;;;;;;;;;;;;;26.27;16.72;100909.31;5102129;28;19916;-78
2022/05/17 08:48:01;;;;;;;;;;;;;;;26.28;16.92;100906.31;5102648;28;19936;-78
2022/05/17 08:50:27;;;;;;;;;;;;;;;26.28;16.73;100911.78;5102444;28;19930;-78
2022/05/17 08:52:53;;;;;;;;;;;;;;;26.27;16.72;100914.81;5119380;28;19959;-79
2022/05/17 08:55:27;;;;;;;;;;;;;;;26.29;16.76;100913.44;5097861;28;19988;-78
2022/05/17 08:58:12;;;;;;;;;;;;;;;26.31;16.90;100918.63;5114331;28;19916;-78
2022/05/17 09:00:42;;;;;;;;;;;;;;;26.34;16.60;100916.16;5112095;28;19916;-77
2022/05/17 09:03:18;;;;;;;;;;;;;;;26.33;16.79;100919.97;5110114;28;19930;-78
2022/05/17 09:05:53;;;;;;;;;;;;;;;26.35;16.70;100926.00;5104653;28;20003;-78
2022/05/17 09:08:34;;;;;;;;;;;;;;;26.37;16.87;100926.56;5111289;28;19920;-79
2022/05/17 09:10:59;;;;;;;;;;;;;;;26.36;16.69;100924.09;5090973;28;19987;-77
2022/05/17 09:13:35;;;;;;;;;;;;;;;26.40;16.64;100925.97;5110728;28;19916;-79
2022/05/17 09:16:00;;;;;;;;;;;;;;;26.37;16.55;100925.72;5095791;28;19905;-78
2022/05/17 09:18:26;;;;;;;;;;;;;;;26.38;16.58;100932.84;5109259;28;20280;-77
2022/05/17 09:20:51;;;;;;;;;;;;;;;26.42;16.69;100923.78;5088460;28;19920;-77
2022/05/17 09:23:17;;;;;;;;;;;;;;;26.40;16.86;100925.16;5100687;28;19917;-76
2022/05/17 09:25:45;;;;;;;;;;;;;;;26.39;16.80;100940.78;5100147;28;20375;-77
2022/05/17 09:28:11;;;;;;;;;;;;;;;26.49;17.00;100939.09;5083906;28;19917;-78
2022/05/17 09:30:36;;;;;;;;;;;;;;;26.44;17.00;100942.69;5066104;28;20278;-78
2022/05/17 09:33:01;;;;;;;;;;;;;;;26.35;16.79;100934.22;5062588;28;20347;-77
2022/05/17 09:35:27;;;;;;;;;;;;;;;26.40;16.97;100931.44;5080007;28;20342;-76
2022/05/17 09:37:56;;;;;;;;;;;;;;;26.41;16.70;100946.81;5062798;28;19917;-77
2022/05/17 09:40:24;;;;;;;;;;;;;;;26.41;16.83;100948.75;5082522;28;19921;-77
2022/05/17 09:43:02;;;;;;;;;;;;;;;26.41;16.63;100944.06;5080184;28;19921;-78
2022/05/17 09:45:36;;;;;;;;;;;;;;;26.41;16.48;100944.06;5065238;28;19959;-79
2022/05/17 09:48:02;;;;;;;;;;;;;;;26.41;16.77;100946.81;5080041;28;20327;-77
2022/05/17 09:53:14;;;;;;;;;;;;;;;26.39;16.45;100946.28;5080696;28;19947;-77
2022/05/17 09:55:43;;;;;;;;;;;;;;;26.45;16.77;100952.53;5078987;28;19917;-80
2022/05/17 09:58:12;;;;;;;;;;;;;;;26.45;16.82;100951.75;5062559;28;19916;-79
2022/05/17 10:00:41;;;;;;;;;;;;;;;26.48;16.81;100959.41;5077216;28;19928;-77
2022/05/17 10:03:26;;;;;;;;;;;;;;;26.47;16.91;100955.00;5076322;28;20263;-77
2022/05/17 10:05:58;;;;;;;;;;;;;;;26.48;17.08;100959.41;4994836;28;19961;-77
2022/05/17 10:08:24;;;;;;;;;;;;;;;26.54;16.92;100956.34;4995899;28;19917;-77
2022/05/17 10:11:24;;;;;;;;;;;;;;;26.54;16.88;100958.25;5004359;28;19924;-76
2022/05/17 10:14:09;;;;;;;;;;;;;;;26.55;17.09;100957.16;4946254;29;19919;-79
2022/05/17 10:16:52;;;;;;;;;;;;;;;26.57;17.04;100952.22;4944477;29;19942;-78
2022/05/17 10:19:27;;;;;;;;;;;;;;;26.56;17.31;100961.53;4946411;29;19961;-76
2022/05/17 10:22:04;;;;;;;;;;;;;;;26.60;17.21;100965.38;4947886;29;19957;-78
2022/05/17 10:24:30;;;;;;;;;;;;;;;26.60;17.23;100968.13;4946776;29;19993;-77
2022/05/17 10:27:10;;;;;;;;;;;;;;;26.65;16.97;100965.38;4956281;29;19922;-78
2022/05/17 10:29:38;;;;;;;;;;;;;;;26.64;17.07;100969.22;4968101;29;19926;-78
2022/05/17 10:32:06;;;;;;;;;;;;;;;26.63;17.27;100967.59;4964206;29;19919;-77
2022/05/17 10:34:46;;;;;;;;;;;;;;;26.64;17.09;100969.22;4968230;29;19919;-78
2022/05/17 10:37:19;;;;;;;;;;;;;;;26.66;17.32;100969.75;4967580;29;19994;-77
2022/05/17 10:39:47;;;;;;;;;;;;;;;26.60;17.35;100971.66;4961347;29;19926;-79
2022/05/17 10:42:13;;;;;;;;;;;;;;;26.63;17.13;100969.50;4977633;28;19917;-78
2022/05/17 10:44:45;;;;;;;;;;;;;;;26.63;17.13;100973.06;5025911;28;19917;-79
2022/05/17 10:47:33;;;;;;;;;;;;;;;26.62;16.91;100971.41;5027297;28;19943;-80
2022/05/17 10:49:58;;;;;;;;;;;;;;;26.64;16.60;100974.69;5090881;28;19916;-79
2022/05/17 10:52:27;;;;;;;;;;;;;;;26.60;16.47;100979.88;5089924;28;19935;-79
2022/05/17 10:54:52;;;;;;;;;;;;;;;26.63;16.56;100966.75;5090610;28;19983;-80
2022/05/17 10:57:18;;;;;;;;;;;;;;;26.59;16.45;100971.94;5090076;28;19923;-76
2022/05/17 10:59:49;;;;;;;;;;;;;;;26.63;16.62;100977.72;5090565;28;19967;-78
2022/05/17 11:02:14;;;;;;;;;;;;;;;26.64;16.52;100982.91;5089442;28;19923;-78
2022/05/17 11:04:57;;;;;;;;;;;;;;;26.61;16.58;100987.03;5089675;28;19972;-78
2022/05/17 11:07:32;;;;;;;;;;;;;;;26.63;16.49;100985.94;5089802;28;19949;-76
2022/05/17 11:10:15;;;;;;;;;;;;;;;26.63;16.35;100983.19;5090062;28;19920;-77
2022/05/17 11:12:42;;;;;;;;;;;;;;;26.60;16.39;100990.84;5072860;28;19923;-76
2022/05/17 11:15:08;;;;;;;;;;;;;;;26.58;16.45;100995.81;5088992;28;19923;-78
2022/05/17 11:17:40;;;;;;;;;;;;;;;26.58;16.30;101003.22;5090747;28;19988;-78
2022/05/17 11:20:22;;;;;;;;;;;;;;;26.60;16.28;101010.03;5073316;28;19916;-78
2022/05/17 11:22:58;;;;;;;;;;;;;;;26.58;16.36;101005.97;5109738;28;19920;-78
2022/05/17 11:25:23;;;;;;;;;;;;;;;26.58;16.29;100995.00;5093046;28;19916;-77
2022/05/17 11:27:54;;;;;;;;;;;;;;;26.61;16.31;101005.38;5130485;28;19916;-79
2022/05/17 11:30:22;;;;;;;;;;;;;;;26.58;16.31;100998.53;5130819;28;19971;-78
2022/05/17 11:33:06;;;;;;;;;;;;;;;26.59;16.16;101007.56;5130495;28;19979;-80
2022/05/17 11:35:32;;;;;;;;;;;;;;;26.57;16.12;101009.78;5130031;28;19922;-78
2022/05/17 11:37:57;;;;;;;;;;;;;;;26.57;16.01;101002.38;5129705;28;19915;-79
2022/05/17 11:40:41;;;;;;;;;;;;;;;26.60;16.06;101001.00;5129861;28;20301;-78
2022/05/17 11:45:51;;;;;;;;;;;;;;;26.62;16.08;101009.78;5129127;28;19965;-77
2022/05/17 11:48:20;;;;;;;;;;;;;;;26.57;16.09;101007.84;5111068;28;19919;-76
2022/05/17 11:50:51;;;;;;;;;;;;;;;26.56;16.01;101014.47;5127825;28;19916;-77
2022/05/17 11:53:22;;;;;;;;;;;;;;;26.55;16.06;101009.25;5127631;28;19931;-78
2022/05/17 11:56:06;;;;;;;;;;;;;;;26.57;16.14;101005.13;5127287;28;19943;-77
2022/05/17 11:58:31;;;;;;;;;;;;;;;26.52;16.29;101001.59;5126557;28;19916;-77
2022/05/17 12:00:57;;;;;;;;;;;;;;;26.55;16.26;101009.25;5107149;28;19916;-77
2022/05/17 12:03:41;;;;;;;;;;;;;;;26.56;16.26;101005.38;5126606;28;19919;-78
2022/05/17 12:06:08;;;;;;;;;;;;;;;26.55;16.13;101003.75;5127114;28;19926;-77
2022/05/17 12:08:42;;;;;;;;;;;;;;;26.58;16.13;101009.50;5123263;28;19978;-78
2022/05/17 12:11:07;;;;;;;;;;;;;;;26.59;16.20;101015.81;5125348;28;19939;-77
2022/05/17 12:13:33;;;;;;;;;;;;;;;26.60;16.33;101015.53;5123465;28;19916;-77
2022/05/17 12:15:58;;;;;;;;;;;;;;;26.61;16.26;101016.34;5107013;28;19916;-78
2022/05/17 12:18:35;;;;;;;;;;;;;;;26.59;16.34;101010.31;5124808;28;19950;-78
2022/05/17 12:21:19;;;;;;;;;;;;;;;26.67;16.44;101022.66;5096185;28;20007;-78
2022/05/17 12:23:44;;;;;;;;;;;;;;;26.65;16.49;101014.72;5099133;28;19920;-77
2022/05/17 12:26:20;;;;;;;;;;;;;;;26.65;16.39;101022.09;5026053;28;1833938;-77
2022/05/17 12:28:49;;;;;;;;;;;;;;;26.59;16.63;101016.63;5061242;28;19920;-77
2022/05/17 12:31:23;;;;;;;;;;;;;;;26.64;16.50;101024.03;5061294;28;19924;-76
2022/05/17 12:33:49;;;;;;;;;;;;;;;26.61;16.70;101024.56;5078725;28;20366;-78
2022/05/17 12:36:30;;;;;;;;;;;;;;;26.70;16.42;101031.16;5078279;28;19923;-77
2022/05/17 12:44:39;;;;;;;;;;;;;;;26.64;16.37;101035.00;5077826;28;19927;-78
2022/05/17 12:47:08;;;;;;;;;;;;;;;26.68;16.43;101035.25;5062569;28;19924;-77
2022/05/17 12:49:33;;;;;;;;;;;;;;;26.67;16.49;101028.97;5080580;28;19916;-78
2022/05/17 12:51:59;;;;;;;;;;;;;;;26.66;16.60;101034.72;5080060;28;20420;-80
2022/05/17 12:54:29;;;;;;;;;;;;;;;26.63;16.64;101027.06;5061687;28;20003;-77
2022/05/17 12:56:55;;;;;;;;;;;;;;;26.66;16.44;101037.47;5077869;28;19970;-77
2022/05/17 12:59:31;;;;;;;;;;;;;;;26.68;16.67;101030.63;5078828;28;19920;-78
2022/05/17 13:01:57;;;;;;;;;;;;;;;26.65;16.50;101028.44;5079013;28;19917;-79